sensor_id;sensor_type;location;lat;lon;timestamp;temperature;humidity
5508;DHT22;2776;51.046;6.772;2023-03-01T00:01:17;-0.50;99.90
5508;DHT22;2776;51.046;6.772;2023-03-01T00:03:45;-0.50;99.90
5508;DHT22;2776;51.046;6.772;2023-03-01T00:06:12;-0.50;99.90
5508;DHT22;2776;51.046;6.772;2023-03-01T00:08:40;-0.60;99.90
5508;DHT22;2776;51.046;6.772;2023-03-01T00:11:08;-0.60;99.90
5508;DHT22;2776;51.046;6.772;2023-03-01T00:13:35;-0.60;99.90
5508;DHT22;2776;51.046;6.772;2023-03-01T00:16:03;-0.60;99.90
5508;DHT22;2776;51.046;6.772;2023-03-01T00:18:30;-0.50;99.90
5508;DHT22;2776;51.046;6.772;2023-03-01T00:20:56;-0.50;99.90
5508;DHT22;2776;51.046;6.772;2023-03-01T00:23:24;-0.40;99.90
5508;DHT22;2776;51.046;6.772;2023-03-01T00:25:52;-0.40;99.90
5508;DHT22;2776;51.046;6.772;2023-03-01T00:28:19;-0.30;99.90
5508;DHT22;2776;51.046;6.772;2023-03-01T00:30:46;-0.30;99.90
5508;DHT22;2776;51.046;6.772;2023-03-01T00:33:13;-0.40;99.90
5508;DHT22;2776;51.046;6.772;2023-03-01T00:35:40;-0.40;99.90
5508;DHT22;2776;51.046;6.772;2023-03-01T00:38:07;-0.40;99.90
5508;DHT22;2776;51.046;6.772;2023-03-01T00:40:35;-0.40;99.90
5508;DHT22;2776;51.046;6.772;2023-03-01T00:43:03;-0.40;99.90
5508;DHT22;2776;51.046;6.772;2023-03-01T00:45:30;-0.50;99.90
5508;DHT22;2776;51.046;6.772;2023-03-01T00:47:57;-0.50;99.90
5508;DHT22;2776;51.046;6.772;2023-03-01T00:50:24;-0.50;99.90
5508;DHT22;2776;51.046;6.772;2023-03-01T00:52:52;-0.60;99.90
5508;DHT22;2776;51.046;6.772;2023-03-01T00:55:19;-0.60;99.90
5508;DHT22;2776;51.046;6.772;2023-03-01T00:57:46;-0.70;99.90
5508;DHT22;2776;51.046;6.772;2023-03-01T01:00:15;-0.70;99.90
5508;DHT22;2776;51.046;6.772;2023-03-01T01:02:41;-0.70;99.90
5508;DHT22;2776;51.046;6.772;2023-03-01T01:05:09;-0.80;99.90
5508;DHT22;2776;51.046;6.772;2023-03-01T01:07:36;-0.90;99.90
5508;DHT22;2776;51.046;6.772;2023-03-01T01:10:04;-0.90;99.90
5508;DHT22;2776;51.046;6.772;2023-03-01T01:12:31;-0.90;99.90
5508;DHT22;2776;51.046;6.772;2023-03-01T01:14:58;-0.90;99.90
5508;DHT22;2776;51.046;6.772;2023-03-01T01:17:26;-0.90;99.90
5508;DHT22;2776;51.046;6.772;2023-03-01T01:19:53;-0.90;99.90
5508;DHT22;2776;51.046;6.772;2023-03-01T01:22:20;-0.90;99.90
5508;DHT22;2776;51.046;6.772;2023-03-01T01:24:46;-0.90;99.90
5508;DHT22;2776;51.046;6.772;2023-03-01T01:27:13;-0.90;99.90
5508;DHT22;2776;51.046;6.772;2023-03-01T01:29:40;-0.90;99.90
5508;DHT22;2776;51.046;6.772;2023-03-01T01:32:07;-1.00;99.90
5508;DHT22;2776;51.046;6.772;2023-03-01T01:34:35;-1.00;99.90
5508;DHT22;2776;51.046;6.772;2023-03-01T01:37:02;-1.00;99.90
5508;DHT22;2776;51.046;6.772;2023-03-01T01:39:29;-1.00;99.90
5508;DHT22;2776;51.046;6.772;2023-03-01T01:41:56;-1.00;99.90
5508;DHT22;2776;51.046;6.772;2023-03-01T01:44:24;-1.00;99.90
5508;DHT22;2776;51.046;6.772;2023-03-01T01:46:53;-1.10;99.90
5508;DHT22;2776;51.046;6.772;2023-03-01T01:49:32;-1.10;99.90
5508;DHT22;2776;51.046;6.772;2023-03-01T01:52:06;-1.10;99.90
5508;DHT22;2776;51.046;6.772;2023-03-01T01:54:39;-1.10;99.90
5508;DHT22;2776;51.046;6.772;2023-03-01T01:57:10;-1.10;99.90
5508;DHT22;2776;51.046;6.772;2023-03-01T01:59:39;-1.20;99.90
5508;DHT22;2776;51.046;6.772;2023-03-01T02:02:06;-1.30;99.90
5508;DHT22;2776;51.046;6.772;2023-03-01T02:04:33;-1.40;99.90
5508;DHT22;2776;51.046;6.772;2023-03-01T02:07:06;-1.40;99.90
5508;DHT22;2776;51.046;6.772;2023-03-01T02:09:33;-1.40;99.90
5508;DHT22;2776;51.046;6.772;2023-03-01T02:12:01;-1.40;99.90
5508;DHT22;2776;51.046;6.772;2023-03-01T02:14:28;-1.40;99.90
5508;DHT22;2776;51.046;6.772;2023-03-01T02:16:55;-1.40;99.90
5508;DHT22;2776;51.046;6.772;2023-03-01T02:19:31;-1.40;99.90
5508;DHT22;2776;51.046;6.772;2023-03-01T02:22:12;-1.40;99.90
5508;DHT22;2776;51.046;6.772;2023-03-01T02:24:47;-1.40;99.90
5508;DHT22;2776;51.046;6.772;2023-03-01T02:27:21;-1.40;99.90
5508;DHT22;2776;51.046;6.772;2023-03-01T02:29:51;-1.40;99.90
5508;DHT22;2776;51.046;6.772;2023-03-01T02:32:19;-1.40;99.90
5508;DHT22;2776;51.046;6.772;2023-03-01T02:34:51;-1.40;99.90
5508;DHT22;2776;51.046;6.772;2023-03-01T02:37:19;-1.40;99.90
5508;DHT22;2776;51.046;6.772;2023-03-01T02:39:53;-1.50;99.90
5508;DHT22;2776;51.046;6.772;2023-03-01T02:42:26;-1.50;99.90
5508;DHT22;2776;51.046;6.772;2023-03-01T02:44:56;-1.50;99.90
5508;DHT22;2776;51.046;6.772;2023-03-01T02:47:22;-1.50;99.90
5508;DHT22;2776;51.046;6.772;2023-03-01T02:49:49;-1.60;99.90
5508;DHT22;2776;51.046;6.772;2023-03-01T02:52:37;-1.60;99.90
5508;DHT22;2776;51.046;6.772;2023-03-01T02:55:08;-1.70;99.90
5508;DHT22;2776;51.046;6.772;2023-03-01T02:57:38;-1.70;99.90
5508;DHT22;2776;51.046;6.772;2023-03-01T03:00:10;-1.70;99.90
5508;DHT22;2776;51.046;6.772;2023-03-01T03:02:44;-1.90;99.90
5508;DHT22;2776;51.046;6.772;2023-03-01T03:05:14;-1.90;99.90
5508;DHT22;2776;51.046;6.772;2023-03-01T03:07:43;-2.00;99.90
5508;DHT22;2776;51.046;6.772;2023-03-01T03:10:12;-1.90;99.90
5508;DHT22;2776;51.046;6.772;2023-03-01T03:12:40;-2.00;99.90
5508;DHT22;2776;51.046;6.772;2023-03-01T03:15:09;-2.10;99.90
5508;DHT22;2776;51.046;6.772;2023-03-01T03:17:39;-2.10;99.90
5508;DHT22;2776;51.046;6.772;2023-03-01T03:20:07;-2.10;99.90
5508;DHT22;2776;51.046;6.772;2023-03-01T03:22:37;-2.10;99.90
5508;DHT22;2776;51.046;6.772;2023-03-01T03:25:05;-2.10;99.90
5508;DHT22;2776;51.046;6.772;2023-03-01T03:27:35;-2.10;99.90
5508;DHT22;2776;51.046;6.772;2023-03-01T03:30:04;-2.00;99.90
5508;DHT22;2776;51.046;6.772;2023-03-01T03:32:35;-2.00;99.90
5508;DHT22;2776;51.046;6.772;2023-03-01T03:35:02;-2.00;99.90
5508;DHT22;2776;51.046;6.772;2023-03-01T03:37:34;-2.00;99.90
5508;DHT22;2776;51.046;6.772;2023-03-01T03:40:19;-2.10;99.90
5508;DHT22;2776;51.046;6.772;2023-03-01T03:42:46;-2.10;99.90
5508;DHT22;2776;51.046;6.772;2023-03-01T03:45:13;-2.10;99.90
5508;DHT22;2776;51.046;6.772;2023-03-01T03:47:42;-2.20;99.90
5508;DHT22;2776;51.046;6.772;2023-03-01T03:50:10;-2.20;99.90
5508;DHT22;2776;51.046;6.772;2023-03-01T03:52:37;-2.10;99.90
5508;DHT22;2776;51.046;6.772;2023-03-01T03:55:04;-2.10;99.90
5508;DHT22;2776;51.046;6.772;2023-03-01T03:57:34;-2.20;99.90
5508;DHT22;2776;51.046;6.772;2023-03-01T04:00:01;-2.20;99.90
5508;DHT22;2776;51.046;6.772;2023-03-01T04:02:30;-2.20;99.90
5508;DHT22;2776;51.046;6.772;2023-03-01T04:04:58;-2.20;99.90
5508;DHT22;2776;51.046;6.772;2023-03-01T04:07:25;-2.20;99.90
5508;DHT22;2776;51.046;6.772;2023-03-01T04:09:52;-2.20;99.90
5508;DHT22;2776;51.046;6.772;2023-03-01T04:12:18;-2.30;99.90
5508;DHT22;2776;51.046;6.772;2023-03-01T04:14:48;-2.40;99.90
5508;DHT22;2776;51.046;6.772;2023-03-01T04:17:15;-2.40;99.90
5508;DHT22;2776;51.046;6.772;2023-03-01T04:19:42;-2.40;99.90
5508;DHT22;2776;51.046;6.772;2023-03-01T04:22:10;-2.50;99.90
5508;DHT22;2776;51.046;6.772;2023-03-01T04:24:42;-2.40;99.90
5508;DHT22;2776;51.046;6.772;2023-03-01T04:27:09;-2.40;99.90
5508;DHT22;2776;51.046;6.772;2023-03-01T04:29:36;-2.40;99.90
5508;DHT22;2776;51.046;6.772;2023-03-01T04:32:03;-2.30;99.90
5508;DHT22;2776;51.046;6.772;2023-03-01T04:34:30;-2.30;99.90
5508;DHT22;2776;51.046;6.772;2023-03-01T04:36:57;-2.30;99.90
5508;DHT22;2776;51.046;6.772;2023-03-01T04:39:25;-2.30;99.90
5508;DHT22;2776;51.046;6.772;2023-03-01T04:41:52;-2.30;99.90
5508;DHT22;2776;51.046;6.772;2023-03-01T04:44:18;-2.30;99.90
5508;DHT22;2776;51.046;6.772;2023-03-01T04:46:45;-2.30;99.90
5508;DHT22;2776;51.046;6.772;2023-03-01T04:49:14;-2.30;99.90
5508;DHT22;2776;51.046;6.772;2023-03-01T04:51:41;-2.30;99.90
5508;DHT22;2776;51.046;6.772;2023-03-01T04:54:08;-2.30;99.90
5508;DHT22;2776;51.046;6.772;2023-03-01T04:56:37;-2.40;99.90
5508;DHT22;2776;51.046;6.772;2023-03-01T04:59:03;-2.40;99.90
5508;DHT22;2776;51.046;6.772;2023-03-01T05:01:31;-2.50;99.90
5508;DHT22;2776;51.046;6.772;2023-03-01T05:03:57;-2.60;99.90
5508;DHT22;2776;51.046;6.772;2023-03-01T05:06:28;-2.60;99.90
5508;DHT22;2776;51.046;6.772;2023-03-01T05:08:55;-2.60;99.90
5508;DHT22;2776;51.046;6.772;2023-03-01T05:11:22;-2.60;99.90
5508;DHT22;2776;51.046;6.772;2023-03-01T05:13:50;-2.50;99.90
5508;DHT22;2776;51.046;6.772;2023-03-01T05:16:20;-2.60;99.90
5508;DHT22;2776;51.046;6.772;2023-03-01T05:18:47;-2.60;99.90
5508;DHT22;2776;51.046;6.772;2023-03-01T05:21:16;-2.60;99.90
5508;DHT22;2776;51.046;6.772;2023-03-01T05:23:43;-2.50;99.90
5508;DHT22;2776;51.046;6.772;2023-03-01T05:26:10;-2.50;99.90
5508;DHT22;2776;51.046;6.772;2023-03-01T05:28:38;-2.50;99.90
5508;DHT22;2776;51.046;6.772;2023-03-01T05:31:06;-2.50;99.90
5508;DHT22;2776;51.046;6.772;2023-03-01T05:33:35;-2.50;99.90
5508;DHT22;2776;51.046;6.772;2023-03-01T05:36:03;-2.50;99.90
5508;DHT22;2776;51.046;6.772;2023-03-01T05:38:30;-2.50;99.90
5508;DHT22;2776;51.046;6.772;2023-03-01T05:40:57;-2.50;99.90
5508;DHT22;2776;51.046;6.772;2023-03-01T05:43:23;-2.50;99.90
5508;DHT22;2776;51.046;6.772;2023-03-01T05:45:50;-2.60;99.90
5508;DHT22;2776;51.046;6.772;2023-03-01T05:48:18;-2.60;99.90
5508;DHT22;2776;51.046;6.772;2023-03-01T05:50:46;-2.60;99.90
5508;DHT22;2776;51.046;6.772;2023-03-01T05:53:14;-2.60;99.90
5508;DHT22;2776;51.046;6.772;2023-03-01T05:55:42;-2.60;99.90
5508;DHT22;2776;51.046;6.772;2023-03-01T05:58:11;-2.70;99.90
5508;DHT22;2776;51.046;6.772;2023-03-01T06:00:40;-2.70;99.90
5508;DHT22;2776;51.046;6.772;2023-03-01T06:03:08;-2.70;99.90
5508;DHT22;2776;51.046;6.772;2023-03-01T06:05:38;-2.70;99.90
5508;DHT22;2776;51.046;6.772;2023-03-01T06:08:05;-2.70;99.90
5508;DHT22;2776;51.046;6.772;2023-03-01T06:10:32;-2.70;99.90
5508;DHT22;2776;51.046;6.772;2023-03-01T06:12:58;-2.70;99.90
5508;DHT22;2776;51.046;6.772;2023-03-01T06:15:25;-2.70;99.90
5508;DHT22;2776;51.046;6.772;2023-03-01T06:17:54;-2.80;99.90
5508;DHT22;2776;51.046;6.772;2023-03-01T06:20:24;-2.80;99.90
5508;DHT22;2776;51.046;6.772;2023-03-01T06:22:52;-2.80;99.90
5508;DHT22;2776;51.046;6.772;2023-03-01T06:25:21;-2.80;99.90
5508;DHT22;2776;51.046;6.772;2023-03-01T06:27:48;-2.90;99.90
5508;DHT22;2776;51.046;6.772;2023-03-01T06:30:17;-2.80;99.90
5508;DHT22;2776;51.046;6.772;2023-03-01T06:32:44;-2.80;99.90
5508;DHT22;2776;51.046;6.772;2023-03-01T06:35:12;-2.70;99.90
5508;DHT22;2776;51.046;6.772;2023-03-01T06:37:39;-2.70;99.90
5508;DHT22;2776;51.046;6.772;2023-03-01T06:40:09;-2.70;99.90
5508;DHT22;2776;51.046;6.772;2023-03-01T06:42:37;-2.60;99.90
5508;DHT22;2776;51.046;6.772;2023-03-01T06:45:05;-2.60;99.90
5508;DHT22;2776;51.046;6.772;2023-03-01T06:47:33;-2.40;99.90
5508;DHT22;2776;51.046;6.772;2023-03-01T06:50:00;-2.20;99.90
5508;DHT22;2776;51.046;6.772;2023-03-01T06:52:26;-1.90;99.90
5508;DHT22;2776;51.046;6.772;2023-03-01T06:54:53;-1.40;99.90
5508;DHT22;2776;51.046;6.772;2023-03-01T06:57:21;-1.00;99.90
5508;DHT22;2776;51.046;6.772;2023-03-01T06:59:48;-0.50;99.90
5508;DHT22;2776;51.046;6.772;2023-03-01T07:02:15;0.00;99.90
5508;DHT22;2776;51.046;6.772;2023-03-01T07:04:42;0.50;99.90
5508;DHT22;2776;51.046;6.772;2023-03-01T07:07:09;0.90;99.90
5508;DHT22;2776;51.046;6.772;2023-03-01T07:09:36;1.40;99.90
5508;DHT22;2776;51.046;6.772;2023-03-01T07:12:03;1.80;99.90
5508;DHT22;2776;51.046;6.772;2023-03-01T07:14:32;2.20;99.90
5508;DHT22;2776;51.046;6.772;2023-03-01T07:16:58;2.60;99.90
5508;DHT22;2776;51.046;6.772;2023-03-01T07:19:25;3.10;99.90
5508;DHT22;2776;51.046;6.772;2023-03-01T07:21:52;3.50;99.90
5508;DHT22;2776;51.046;6.772;2023-03-01T07:24:19;3.90;99.90
5508;DHT22;2776;51.046;6.772;2023-03-01T07:26:48;4.30;99.90
5508;DHT22;2776;51.046;6.772;2023-03-01T07:29:15;4.50;99.90
5508;DHT22;2776;51.046;6.772;2023-03-01T07:31:44;4.80;99.90
5508;DHT22;2776;51.046;6.772;2023-03-01T07:34:11;5.10;99.90
5508;DHT22;2776;51.046;6.772;2023-03-01T07:36:37;5.30;99.90
5508;DHT22;2776;51.046;6.772;2023-03-01T07:39:08;5.90;98.80
5508;DHT22;2776;51.046;6.772;2023-03-01T07:41:35;6.40;96.10
5508;DHT22;2776;51.046;6.772;2023-03-01T07:44:02;7.20;92.80
5508;DHT22;2776;51.046;6.772;2023-03-01T07:46:29;7.90;86.80
5508;DHT22;2776;51.046;6.772;2023-03-01T07:48:57;8.50;77.70
5508;DHT22;2776;51.046;6.772;2023-03-01T07:51:24;8.70;69.30
5508;DHT22;2776;51.046;6.772;2023-03-01T07:53:51;8.50;64.30
5508;DHT22;2776;51.046;6.772;2023-03-01T07:56:18;8.90;63.20
5508;DHT22;2776;51.046;6.772;2023-03-01T07:58:45;9.10;60.80
5508;DHT22;2776;51.046;6.772;2023-03-01T08:01:13;9.20;58.30
5508;DHT22;2776;51.046;6.772;2023-03-01T08:03:40;9.00;58.20
5508;DHT22;2776;51.046;6.772;2023-03-01T08:06:10;8.90;63.30
5508;DHT22;2776;51.046;6.772;2023-03-01T08:08:37;9.10;66.70
5508;DHT22;2776;51.046;6.772;2023-03-01T08:11:05;9.30;64.00
5508;DHT22;2776;51.046;6.772;2023-03-01T08:13:33;9.30;60.00
5508;DHT22;2776;51.046;6.772;2023-03-01T08:16:03;9.70;58.80
5508;DHT22;2776;51.046;6.772;2023-03-01T08:18:30;9.70;55.00
5508;DHT22;2776;51.046;6.772;2023-03-01T08:21:01;9.80;53.20
5508;DHT22;2776;51.046;6.772;2023-03-01T08:23:30;9.90;53.40
5508;DHT22;2776;51.046;6.772;2023-03-01T08:26:04;9.70;52.40
5508;DHT22;2776;51.046;6.772;2023-03-01T08:28:31;9.30;53.60
5508;DHT22;2776;51.046;6.772;2023-03-01T08:30:58;9.00;54.60
5508;DHT22;2776;51.046;6.772;2023-03-01T08:33:25;8.80;54.20
5508;DHT22;2776;51.046;6.772;2023-03-01T08:35:51;8.50;55.40
5508;DHT22;2776;51.046;6.772;2023-03-01T08:38:18;9.10;55.40
5508;DHT22;2776;51.046;6.772;2023-03-01T08:40:46;9.50;51.90
5508;DHT22;2776;51.046;6.772;2023-03-01T08:43:13;9.70;51.50
5508;DHT22;2776;51.046;6.772;2023-03-01T08:45:40;9.70;51.40
5508;DHT22;2776;51.046;6.772;2023-03-01T08:48:06;9.40;52.40
5508;DHT22;2776;51.046;6.772;2023-03-01T08:50:33;9.40;51.70
5508;DHT22;2776;51.046;6.772;2023-03-01T08:53:00;9.50;51.50
5508;DHT22;2776;51.046;6.772;2023-03-01T08:55:26;9.70;51.10
5508;DHT22;2776;51.046;6.772;2023-03-01T08:57:55;9.50;49.90
5508;DHT22;2776;51.046;6.772;2023-03-01T09:00:24;9.60;49.40
5508;DHT22;2776;51.046;6.772;2023-03-01T09:02:51;9.80;48.90
5508;DHT22;2776;51.046;6.772;2023-03-01T09:05:18;9.60;49.20
5508;DHT22;2776;51.046;6.772;2023-03-01T09:07:44;9.40;48.20
5508;DHT22;2776;51.046;6.772;2023-03-01T09:10:11;9.40;46.80
5508;DHT22;2776;51.046;6.772;2023-03-01T09:12:38;9.10;46.40
5508;DHT22;2776;51.046;6.772;2023-03-01T09:15:07;8.60;46.10
5508;DHT22;2776;51.046;6.772;2023-03-01T09:17:34;8.70;47.00
5508;DHT22;2776;51.046;6.772;2023-03-01T09:20:01;8.70;47.50
5508;DHT22;2776;51.046;6.772;2023-03-01T09:22:32;8.20;48.00
5508;DHT22;2776;51.046;6.772;2023-03-01T09:24:59;8.10;49.30
5508;DHT22;2776;51.046;6.772;2023-03-01T09:27:26;7.90;49.90
5508;DHT22;2776;51.046;6.772;2023-03-01T09:29:53;7.70;51.10
5508;DHT22;2776;51.046;6.772;2023-03-01T09:32:23;7.90;50.30
5508;DHT22;2776;51.046;6.772;2023-03-01T09:34:49;8.10;50.90
5508;DHT22;2776;51.046;6.772;2023-03-01T09:37:30;8.30;50.60
5508;DHT22;2776;51.046;6.772;2023-03-01T09:39:57;8.40;48.60
5508;DHT22;2776;51.046;6.772;2023-03-01T09:42:24;8.30;48.60
5508;DHT22;2776;51.046;6.772;2023-03-01T09:44:54;8.00;48.50
5508;DHT22;2776;51.046;6.772;2023-03-01T09:47:27;8.10;48.40
5508;DHT22;2776;51.046;6.772;2023-03-01T09:50:00;8.00;48.70
5508;DHT22;2776;51.046;6.772;2023-03-01T09:52:34;8.00;50.00
5508;DHT22;2776;51.046;6.772;2023-03-01T09:55:08;8.10;48.10
5508;DHT22;2776;51.046;6.772;2023-03-01T09:57:41;8.10;48.00
5508;DHT22;2776;51.046;6.772;2023-03-01T10:00:19;8.10;48.30
5508;DHT22;2776;51.046;6.772;2023-03-01T10:02:52;8.10;49.30
5508;DHT22;2776;51.046;6.772;2023-03-01T10:05:34;7.90;47.50
5508;DHT22;2776;51.046;6.772;2023-03-01T10:08:15;7.40;47.90
5508;DHT22;2776;51.046;6.772;2023-03-01T10:10:47;7.10;48.90
5508;DHT22;2776;51.046;6.772;2023-03-01T10:13:16;6.60;49.00
5508;DHT22;2776;51.046;6.772;2023-03-01T10:15:47;6.50;51.10
5508;DHT22;2776;51.046;6.772;2023-03-01T10:18:19;6.40;51.60
5508;DHT22;2776;51.046;6.772;2023-03-01T10:20:51;6.50;52.20
5508;DHT22;2776;51.046;6.772;2023-03-01T10:23:18;6.60;51.90
5508;DHT22;2776;51.046;6.772;2023-03-01T10:25:56;6.50;51.60
5508;DHT22;2776;51.046;6.772;2023-03-01T10:28:31;6.40;51.90
5508;DHT22;2776;51.046;6.772;2023-03-01T10:31:03;6.40;51.70
5508;DHT22;2776;51.046;6.772;2023-03-01T10:33:33;6.30;51.30
5508;DHT22;2776;51.046;6.772;2023-03-01T10:36:02;6.20;51.50
5508;DHT22;2776;51.046;6.772;2023-03-01T10:38:31;6.20;51.00
5508;DHT22;2776;51.046;6.772;2023-03-01T10:41:12;6.30;51.60
5508;DHT22;2776;51.046;6.772;2023-03-01T10:43:45;6.20;51.40
5508;DHT22;2776;51.046;6.772;2023-03-01T10:46:26;6.20;51.20
5508;DHT22;2776;51.046;6.772;2023-03-01T10:49:14;6.10;52.10
5508;DHT22;2776;51.046;6.772;2023-03-01T10:51:42;6.10;51.50
5508;DHT22;2776;51.046;6.772;2023-03-01T10:54:17;6.10;51.20
5508;DHT22;2776;51.046;6.772;2023-03-01T10:56:49;6.10;49.90
5508;DHT22;2776;51.046;6.772;2023-03-01T10:59:29;6.10;49.80
5508;DHT22;2776;51.046;6.772;2023-03-01T11:02:18;6.20;50.00
5508;DHT22;2776;51.046;6.772;2023-03-01T11:05:00;6.20;50.40
5508;DHT22;2776;51.046;6.772;2023-03-01T11:07:27;6.30;51.00
5508;DHT22;2776;51.046;6.772;2023-03-01T11:09:54;6.40;51.00
5508;DHT22;2776;51.046;6.772;2023-03-01T11:12:21;6.40;50.20
5508;DHT22;2776;51.046;6.772;2023-03-01T11:14:49;6.40;48.80
5508;DHT22;2776;51.046;6.772;2023-03-01T11:17:21;6.40;49.90
5508;DHT22;2776;51.046;6.772;2023-03-01T11:20:02;6.40;50.40
5508;DHT22;2776;51.046;6.772;2023-03-01T11:22:31;6.50;49.90
5508;DHT22;2776;51.046;6.772;2023-03-01T11:25:00;6.50;50.60
5508;DHT22;2776;51.046;6.772;2023-03-01T11:27:29;6.50;50.90
5508;DHT22;2776;51.046;6.772;2023-03-01T11:30:01;6.70;51.20
5508;DHT22;2776;51.046;6.772;2023-03-01T11:32:34;6.80;51.10
5508;DHT22;2776;51.046;6.772;2023-03-01T11:35:10;6.80;49.10
5508;DHT22;2776;51.046;6.772;2023-03-01T11:37:43;6.80;49.70
5508;DHT22;2776;51.046;6.772;2023-03-01T11:40:13;7.00;48.90
5508;DHT22;2776;51.046;6.772;2023-03-01T11:42:51;7.00;48.30
5508;DHT22;2776;51.046;6.772;2023-03-01T11:45:20;7.10;49.10
5508;DHT22;2776;51.046;6.772;2023-03-01T11:48:02;7.20;49.50
5508;DHT22;2776;51.046;6.772;2023-03-01T11:50:35;7.20;49.00
5508;DHT22;2776;51.046;6.772;2023-03-01T11:53:19;7.30;48.40
5508;DHT22;2776;51.046;6.772;2023-03-01T11:56:02;7.40;48.60
5508;DHT22;2776;51.046;6.772;2023-03-01T11:58:41;7.40;47.90
5508;DHT22;2776;51.046;6.772;2023-03-01T12:01:24;7.50;48.00
5508;DHT22;2776;51.046;6.772;2023-03-01T12:04:23;7.50;47.40
5508;DHT22;2776;51.046;6.772;2023-03-01T12:06:59;7.60;47.60
5508;DHT22;2776;51.046;6.772;2023-03-01T12:09:38;7.60;47.40
5508;DHT22;2776;51.046;6.772;2023-03-01T12:12:29;7.60;48.60
5508;DHT22;2776;51.046;6.772;2023-03-01T12:15:29;7.50;47.30
5508;DHT22;2776;51.046;6.772;2023-03-01T12:18:11;7.50;47.40
5508;DHT22;2776;51.046;6.772;2023-03-01T12:20:45;7.50;48.00
5508;DHT22;2776;51.046;6.772;2023-03-01T12:23:31;7.60;47.40
5508;DHT22;2776;51.046;6.772;2023-03-01T12:26:06;7.60;48.00
5508;DHT22;2776;51.046;6.772;2023-03-01T12:28:48;7.70;46.10
5508;DHT22;2776;51.046;6.772;2023-03-01T12:31:37;7.70;47.40
5508;DHT22;2776;51.046;6.772;2023-03-01T12:34:17;7.70;46.70
5508;DHT22;2776;51.046;6.772;2023-03-01T12:36:56;7.70;47.00
5508;DHT22;2776;51.046;6.772;2023-03-01T12:39:40;7.80;46.50
5508;DHT22;2776;51.046;6.772;2023-03-01T12:42:17;7.90;46.20
5508;DHT22;2776;51.046;6.772;2023-03-01T12:44:55;7.90;45.90
5508;DHT22;2776;51.046;6.772;2023-03-01T12:47:36;8.00;46.00
5508;DHT22;2776;51.046;6.772;2023-03-01T12:50:14;7.90;47.70
5508;DHT22;2776;51.046;6.772;2023-03-01T12:52:46;7.90;48.90
5508;DHT22;2776;51.046;6.772;2023-03-01T12:55:28;7.90;50.00
5508;DHT22;2776;51.046;6.772;2023-03-01T12:58:02;7.80;49.60
5508;DHT22;2776;51.046;6.772;2023-03-01T13:00:35;7.70;48.70
5508;DHT22;2776;51.046;6.772;2023-03-01T13:03:10;7.70;50.30
5508;DHT22;2776;51.046;6.772;2023-03-01T13:05:45;7.80;49.90
5508;DHT22;2776;51.046;6.772;2023-03-01T13:08:19;7.70;49.70
5508;DHT22;2776;51.046;6.772;2023-03-01T13:10:49;7.70;49.50
5508;DHT22;2776;51.046;6.772;2023-03-01T13:13:20;7.80;49.60
5508;DHT22;2776;51.046;6.772;2023-03-01T13:15:48;7.70;49.50
5508;DHT22;2776;51.046;6.772;2023-03-01T13:18:29;7.80;50.50
5508;DHT22;2776;51.046;6.772;2023-03-01T13:20:59;7.80;49.40
5508;DHT22;2776;51.046;6.772;2023-03-01T13:23:28;7.80;49.60
5508;DHT22;2776;51.046;6.772;2023-03-01T13:26:12;7.80;50.90
5508;DHT22;2776;51.046;6.772;2023-03-01T13:28:48;7.80;51.10
5508;DHT22;2776;51.046;6.772;2023-03-01T13:35:01;7.80;50.90
5508;DHT22;2776;51.046;6.772;2023-03-01T13:37:32;7.70;52.30
5508;DHT22;2776;51.046;6.772;2023-03-01T13:40:02;7.70;51.90
5508;DHT22;2776;51.046;6.772;2023-03-01T13:42:42;7.70;52.30
5508;DHT22;2776;51.046;6.772;2023-03-01T13:45:18;7.70;51.60
5508;DHT22;2776;51.046;6.772;2023-03-01T13:47:47;7.70;51.30
5508;DHT22;2776;51.046;6.772;2023-03-01T13:50:20;7.80;50.90
5508;DHT22;2776;51.046;6.772;2023-03-01T13:52:52;7.80;51.60
5508;DHT22;2776;51.046;6.772;2023-03-01T13:55:23;7.80;51.80
5508;DHT22;2776;51.046;6.772;2023-03-01T13:57:55;7.80;50.10
5508;DHT22;2776;51.046;6.772;2023-03-01T14:00:31;7.80;50.40
5508;DHT22;2776;51.046;6.772;2023-03-01T14:03:09;7.80;49.00
5508;DHT22;2776;51.046;6.772;2023-03-01T14:05:37;7.80;49.10
5508;DHT22;2776;51.046;6.772;2023-03-01T14:08:13;7.80;49.50
5508;DHT22;2776;51.046;6.772;2023-03-01T14:10:54;7.90;51.30
5508;DHT22;2776;51.046;6.772;2023-03-01T14:13:34;7.90;50.20
5508;DHT22;2776;51.046;6.772;2023-03-01T14:16:16;7.70;50.30
5508;DHT22;2776;51.046;6.772;2023-03-01T14:18:53;7.70;52.00
5508;DHT22;2776;51.046;6.772;2023-03-01T14:21:22;7.80;52.70
5508;DHT22;2776;51.046;6.772;2023-03-01T14:23:51;7.80;53.50
5508;DHT22;2776;51.046;6.772;2023-03-01T14:26:21;7.80;52.00
5508;DHT22;2776;51.046;6.772;2023-03-01T14:28:49;7.90;53.10
5508;DHT22;2776;51.046;6.772;2023-03-01T14:31:32;7.70;52.10
5508;DHT22;2776;51.046;6.772;2023-03-01T14:34:00;7.70;53.60
5508;DHT22;2776;51.046;6.772;2023-03-01T14:36:29;7.70;54.30
5508;DHT22;2776;51.046;6.772;2023-03-01T14:38:56;7.80;54.20
5508;DHT22;2776;51.046;6.772;2023-03-01T14:41:32;7.80;54.40
5508;DHT22;2776;51.046;6.772;2023-03-01T14:44:03;7.80;54.10
5508;DHT22;2776;51.046;6.772;2023-03-01T14:46:33;7.80;54.80
5508;DHT22;2776;51.046;6.772;2023-03-01T14:49:03;7.80;54.80
5508;DHT22;2776;51.046;6.772;2023-03-01T14:51:31;7.70;53.90
5508;DHT22;2776;51.046;6.772;2023-03-01T14:54:01;7.70;53.90
5508;DHT22;2776;51.046;6.772;2023-03-01T14:56:43;7.70;54.90
5508;DHT22;2776;51.046;6.772;2023-03-01T14:59:11;7.60;55.10
5508;DHT22;2776;51.046;6.772;2023-03-01T15:01:40;7.70;55.40
5508;DHT22;2776;51.046;6.772;2023-03-01T15:04:11;7.60;54.80
5508;DHT22;2776;51.046;6.772;2023-03-01T15:06:38;7.60;54.90
5508;DHT22;2776;51.046;6.772;2023-03-01T15:09:06;7.60;55.70
5508;DHT22;2776;51.046;6.772;2023-03-01T15:11:37;7.70;55.50
5508;DHT22;2776;51.046;6.772;2023-03-01T15:14:29;7.70;55.50
5508;DHT22;2776;51.046;6.772;2023-03-01T15:17:04;7.70;54.60
5508;DHT22;2776;51.046;6.772;2023-03-01T15:19:31;7.70;54.40
5508;DHT22;2776;51.046;6.772;2023-03-01T15:21:58;7.70;54.00
5508;DHT22;2776;51.046;6.772;2023-03-01T15:24:37;7.70;54.60
5508;DHT22;2776;51.046;6.772;2023-03-01T15:27:04;7.70;54.20
5508;DHT22;2776;51.046;6.772;2023-03-01T15:29:34;7.80;53.10
5508;DHT22;2776;51.046;6.772;2023-03-01T15:32:26;7.70;52.80
5508;DHT22;2776;51.046;6.772;2023-03-01T15:34:52;7.70;54.00
5508;DHT22;2776;51.046;6.772;2023-03-01T15:37:39;7.60;53.40
5508;DHT22;2776;51.046;6.772;2023-03-01T15:40:18;7.60;53.70
5508;DHT22;2776;51.046;6.772;2023-03-01T15:42:45;7.60;52.90
5508;DHT22;2776;51.046;6.772;2023-03-01T15:45:22;7.50;52.10
5508;DHT22;2776;51.046;6.772;2023-03-01T15:47:51;7.50;52.10
5508;DHT22;2776;51.046;6.772;2023-03-01T15:50:21;7.40;52.60
5508;DHT22;2776;51.046;6.772;2023-03-01T15:52:49;7.40;52.70
5508;DHT22;2776;51.046;6.772;2023-03-01T15:55:18;7.40;52.30
5508;DHT22;2776;51.046;6.772;2023-03-01T15:57:45;7.30;51.70
5508;DHT22;2776;51.046;6.772;2023-03-01T16:00:13;7.30;50.10
5508;DHT22;2776;51.046;6.772;2023-03-01T16:02:43;7.20;51.00
5508;DHT22;2776;51.046;6.772;2023-03-01T16:05:17;7.20;51.00
5508;DHT22;2776;51.046;6.772;2023-03-01T16:07:45;7.20;52.20
5508;DHT22;2776;51.046;6.772;2023-03-01T16:10:11;7.20;52.40
5508;DHT22;2776;51.046;6.772;2023-03-01T16:12:38;7.20;51.40
5508;DHT22;2776;51.046;6.772;2023-03-01T16:15:13;7.20;50.70
5508;DHT22;2776;51.046;6.772;2023-03-01T16:17:43;7.20;51.20
5508;DHT22;2776;51.046;6.772;2023-03-01T16:20:10;7.20;50.40
5508;DHT22;2776;51.046;6.772;2023-03-01T16:22:37;7.20;51.00
5508;DHT22;2776;51.046;6.772;2023-03-01T16:25:05;7.10;50.60
5508;DHT22;2776;51.046;6.772;2023-03-01T16:27:33;7.10;51.20
5508;DHT22;2776;51.046;6.772;2023-03-01T16:30:00;7.00;50.90
5508;DHT22;2776;51.046;6.772;2023-03-01T16:32:26;7.00;50.80
5508;DHT22;2776;51.046;6.772;2023-03-01T16:34:55;7.00;50.80
5508;DHT22;2776;51.046;6.772;2023-03-01T16:37:21;6.90;51.20